sensor_id;sensor_type;location;lat;lon;timestamp;temperature;humidity
34406;DHT22;20658;45.630;8.886;2023-03-26T00:02:38;10.50;40.70
34406;DHT22;20658;45.630;8.886;2023-03-26T00:05:08;10.50;40.70
34406;DHT22;20658;45.630;8.886;2023-03-26T00:07:40;10.40;40.60
34406;DHT22;20658;45.630;8.886;2023-03-26T00:10:13;10.70;40.60
34406;DHT22;20658;45.630;8.886;2023-03-26T00:12:46;10.30;40.10
34406;DHT22;20658;45.630;8.886;2023-03-26T00:15:15;10.80;40.20
34406;DHT22;20658;45.630;8.886;2023-03-26T00:17:48;10.40;40.30
34406;DHT22;20658;45.630;8.886;2023-03-26T00:20:23;10.40;40.40
34406;DHT22;20658;45.630;8.886;2023-03-26T00:22:58;10.40;40.40
34406;DHT22;20658;45.630;8.886;2023-03-26T00:25:33;10.50;40.70
34406;DHT22;20658;45.630;8.886;2023-03-26T00:28:09;10.50;40.40
34406;DHT22;20658;45.630;8.886;2023-03-26T00:30:37;10.80;40.30
34406;DHT22;20658;45.630;8.886;2023-03-26T00:33:12;10.70;40.50
34406;DHT22;20658;45.630;8.886;2023-03-26T00:35:44;10.50;40.50
34406;DHT22;20658;45.630;8.886;2023-03-26T00:38:13;10.50;40.50
34406;DHT22;20658;45.630;8.886;2023-03-26T00:40:47;10.80;40.50
34406;DHT22;20658;45.630;8.886;2023-03-26T00:43:22;10.50;40.10
34406;DHT22;20658;45.630;8.886;2023-03-26T00:45:57;10.50;40.00
34406;DHT22;20658;45.630;8.886;2023-03-26T00:48:26;10.40;40.00
34406;DHT22;20658;45.630;8.886;2023-03-26T00:51:02;10.40;40.10
34406;DHT22;20658;45.630;8.886;2023-03-26T00:53:35;10.30;40.40
34406;DHT22;20658;45.630;8.886;2023-03-26T00:56:09;10.30;40.50
34406;DHT22;20658;45.630;8.886;2023-03-26T00:58:43;10.30;40.70
34406;DHT22;20658;45.630;8.886;2023-03-26T01:01:22;10.30;41.00
34406;DHT22;20658;45.630;8.886;2023-03-26T01:04:20;10.20;41.20
34406;DHT22;20658;45.630;8.886;2023-03-26T01:07:01;10.10;41.50
34406;DHT22;20658;45.630;8.886;2023-03-26T01:09:33;10.00;41.40
34406;DHT22;20658;45.630;8.886;2023-03-26T01:12:06;10.50;41.80
34406;DHT22;20658;45.630;8.886;2023-03-26T01:14:36;10.00;41.50
34406;DHT22;20658;45.630;8.886;2023-03-26T01:17:10;10.30;41.80
34406;DHT22;20658;45.630;8.886;2023-03-26T01:19:49;10.20;41.80
34406;DHT22;20658;45.630;8.886;2023-03-26T01:22:24;9.80;41.80
34406;DHT22;20658;45.630;8.886;2023-03-26T01:24:59;9.80;41.80
34406;DHT22;20658;45.630;8.886;2023-03-26T01:27:36;10.20;41.80
34406;DHT22;20658;45.630;8.886;2023-03-26T01:30:16;9.80;41.80
34406;DHT22;20658;45.630;8.886;2023-03-26T01:32:57;9.80;42.00
34406;DHT22;20658;45.630;8.886;2023-03-26T01:35:42;9.70;42.20
34406;DHT22;20658;45.630;8.886;2023-03-26T01:38:23;10.10;42.40
34406;DHT22;20658;45.630;8.886;2023-03-26T01:41:04;10.00;42.30
34406;DHT22;20658;45.630;8.886;2023-03-26T01:43:40;9.70;42.40
34406;DHT22;20658;45.630;8.886;2023-03-26T01:46:17;9.60;42.40
34406;DHT22;20658;45.630;8.886;2023-03-26T01:48:51;9.50;43.10
34406;DHT22;20658;45.630;8.886;2023-03-26T01:51:28;9.50;43.50
34406;DHT22;20658;45.630;8.886;2023-03-26T01:54:05;9.50;43.70
34406;DHT22;20658;45.630;8.886;2023-03-26T01:56:49;9.60;43.70
34406;DHT22;20658;45.630;8.886;2023-03-26T01:59:53;9.30;43.70
34406;DHT22;20658;45.630;8.886;2023-03-26T02:03:00;9.70;44.30
34406;DHT22;20658;45.630;8.886;2023-03-26T02:05:46;9.20;43.90
34406;DHT22;20658;45.630;8.886;2023-03-26T02:08:22;9.80;44.20
34406;DHT22;20658;45.630;8.886;2023-03-26T02:10:58;9.20;44.10
34406;DHT22;20658;45.630;8.886;2023-03-26T02:13:37;9.20;44.10
34406;DHT22;20658;45.630;8.886;2023-03-26T02:16:13;9.20;44.00
34406;DHT22;20658;45.630;8.886;2023-03-26T02:18:48;9.20;44.00
34406;DHT22;20658;45.630;8.886;2023-03-26T02:21:27;9.20;43.80
34406;DHT22;20658;45.630;8.886;2023-03-26T02:24:05;9.20;43.60
34406;DHT22;20658;45.630;8.886;2023-03-26T02:26:35;9.20;43.70
34406;DHT22;20658;45.630;8.886;2023-03-26T02:29:11;9.20;43.70
34406;DHT22;20658;45.630;8.886;2023-03-26T02:31:43;9.20;43.90
34406;DHT22;20658;45.630;8.886;2023-03-26T02:34:11;9.10;44.00
34406;DHT22;20658;45.630;8.886;2023-03-26T02:36:46;9.20;44.00
34406;DHT22;20658;45.630;8.886;2023-03-26T02:39:14;9.00;45.40
34406;DHT22;20658;45.630;8.886;2023-03-26T02:41:58;8.80;46.50
34406;DHT22;20658;45.630;8.886;2023-03-26T02:44:39;9.20;47.20
34406;DHT22;20658;45.630;8.886;2023-03-26T02:47:33;8.50;47.10
34406;DHT22;20658;45.630;8.886;2023-03-26T02:50:35;8.60;47.10
34406;DHT22;20658;45.630;8.886;2023-03-26T02:53:27;8.50;47.10
34406;DHT22;20658;45.630;8.886;2023-03-26T02:56:19;8.70;47.40
34406;DHT22;20658;45.630;8.886;2023-03-26T02:59:12;8.50;47.30
34406;DHT22;20658;45.630;8.886;2023-03-26T03:01:56;8.40;47.10
34406;DHT22;20658;45.630;8.886;2023-03-26T03:04:24;8.40;47.30
34406;DHT22;20658;45.630;8.886;2023-03-26T03:06:53;8.40;47.20
34406;DHT22;20658;45.630;8.886;2023-03-26T03:09:23;8.30;47.50
34406;DHT22;20658;45.630;8.886;2023-03-26T03:12:12;8.30;47.70
34406;DHT22;20658;45.630;8.886;2023-03-26T03:14:45;8.40;47.70
34406;DHT22;20658;45.630;8.886;2023-03-26T03:17:15;8.30;47.70
34406;DHT22;20658;45.630;8.886;2023-03-26T03:19:48;8.30;47.90
34406;DHT22;20658;45.630;8.886;2023-03-26T03:22:21;8.30;48.40
34406;DHT22;20658;45.630;8.886;2023-03-26T03:24:54;8.30;49.70
34406;DHT22;20658;45.630;8.886;2023-03-26T03:27:30;8.60;50.70
34406;DHT22;20658;45.630;8.886;2023-03-26T03:30:08;8.00;51.50
34406;DHT22;20658;45.630;8.886;2023-03-26T03:32:45;8.40;52.00
34406;DHT22;20658;45.630;8.886;2023-03-26T03:35:22;8.40;53.40
34406;DHT22;20658;45.630;8.886;2023-03-26T03:37:58;9.10;55.60
34406;DHT22;20658;45.630;8.886;2023-03-26T03:40:41;8.50;56.30
34406;DHT22;20658;45.630;8.886;2023-03-26T03:43:15;8.50;58.90
34406;DHT22;20658;45.630;8.886;2023-03-26T03:46:07;8.50;60.30
34406;DHT22;20658;45.630;8.886;2023-03-26T03:48:49;8.50;61.70
34406;DHT22;20658;45.630;8.886;2023-03-26T03:51:30;8.50;62.80
34406;DHT22;20658;45.630;8.886;2023-03-26T03:54:12;8.60;64.40
34406;DHT22;20658;45.630;8.886;2023-03-26T03:56:46;8.60;65.60
34406;DHT22;20658;45.630;8.886;2023-03-26T03:59:33;8.50;66.30
34406;DHT22;20658;45.630;8.886;2023-03-26T04:02:09;8.50;67.40
34406;DHT22;20658;45.630;8.886;2023-03-26T04:04:51;8.50;70.00
34406;DHT22;20658;45.630;8.886;2023-03-26T04:07:20;8.60;70.70
34406;DHT22;20658;45.630;8.886;2023-03-26T04:10:15;8.50;71.50
34406;DHT22;20658;45.630;8.886;2023-03-26T04:13:07;8.50;72.70
34406;DHT22;20658;45.630;8.886;2023-03-26T04:16:10;8.50;73.50
34406;DHT22;20658;45.630;8.886;2023-03-26T04:18:44;8.50;75.10
34406;DHT22;20658;45.630;8.886;2023-03-26T04:21:19;8.40;75.20
34406;DHT22;20658;45.630;8.886;2023-03-26T04:23:52;8.40;76.10
34406;DHT22;20658;45.630;8.886;2023-03-26T04:26:58;8.40;76.40
34406;DHT22;20658;45.630;8.886;2023-03-26T04:29:38;8.40;77.00
34406;DHT22;20658;45.630;8.886;2023-03-26T04:32:21;8.50;78.80
34406;DHT22;20658;45.630;8.886;2023-03-26T04:34:57;8.30;79.80
34406;DHT22;20658;45.630;8.886;2023-03-26T04:37:36;8.30;81.10
34406;DHT22;20658;45.630;8.886;2023-03-26T04:40:20;8.30;83.00
34406;DHT22;20658;45.630;8.886;2023-03-26T04:43:15;8.30;83.30
34406;DHT22;20658;45.630;8.886;2023-03-26T04:46:04;8.20;85.00
34406;DHT22;20658;45.630;8.886;2023-03-26T04:48:39;8.20;86.00
34406;DHT22;20658;45.630;8.886;2023-03-26T04:51:13;8.20;87.70
34406;DHT22;20658;45.630;8.886;2023-03-26T04:53:52;8.40;88.10
34406;DHT22;20658;45.630;8.886;2023-03-26T04:56:35;8.60;89.70
34406;DHT22;20658;45.630;8.886;2023-03-26T04:59:25;8.20;91.50
34406;DHT22;20658;45.630;8.886;2023-03-26T05:02:04;8.20;93.60
34406;DHT22;20658;45.630;8.886;2023-03-26T05:04:44;8.20;94.30
34406;DHT22;20658;45.630;8.886;2023-03-26T05:07:21;8.20;95.00
34406;DHT22;20658;45.630;8.886;2023-03-26T05:09:54;8.20;95.60
34406;DHT22;20658;45.630;8.886;2023-03-26T05:12:51;8.20;96.40
34406;DHT22;20658;45.630;8.886;2023-03-26T05:15:28;8.20;96.70
34406;DHT22;20658;45.630;8.886;2023-03-26T05:18:22;8.20;97.40
34406;DHT22;20658;45.630;8.886;2023-03-26T05:20:56;8.20;98.10
34406;DHT22;20658;45.630;8.886;2023-03-26T05:23:30;8.20;98.40
34406;DHT22;20658;45.630;8.886;2023-03-26T05:26:17;8.20;98.20
34406;DHT22;20658;45.630;8.886;2023-03-26T05:28:51;8.20;99.10
34406;DHT22;20658;45.630;8.886;2023-03-26T05:31:24;8.30;99.50
34406;DHT22;20658;45.630;8.886;2023-03-26T05:34:00;8.30;99.90
34406;DHT22;20658;45.630;8.886;2023-03-26T05:36:34;8.30;99.90
34406;DHT22;20658;45.630;8.886;2023-03-26T05:39:35;8.40;99.90
34406;DHT22;20658;45.630;8.886;2023-03-26T05:42:12;8.40;99.90
34406;DHT22;20658;45.630;8.886;2023-03-26T05:45:06;8.80;99.90
34406;DHT22;20658;45.630;8.886;2023-03-26T05:47:41;8.50;99.90
34406;DHT22;20658;45.630;8.886;2023-03-26T05:50:15;8.50;99.90
34406;DHT22;20658;45.630;8.886;2023-03-26T05:52:49;8.60;99.90
34406;DHT22;20658;45.630;8.886;2023-03-26T05:55:53;8.60;99.90
34406;DHT22;20658;45.630;8.886;2023-03-26T05:58:48;9.10;99.90
34406;DHT22;20658;45.630;8.886;2023-03-26T06:01:40;8.80;99.90
34406;DHT22;20658;45.630;8.886;2023-03-26T06:04:15;8.90;99.90
34406;DHT22;20658;45.630;8.886;2023-03-26T06:07:02;9.00;99.90
34406;DHT22;20658;45.630;8.886;2023-03-26T06:09:36;9.10;99.90
34406;DHT22;20658;45.630;8.886;2023-03-26T06:12:05;9.20;99.90
34406;DHT22;20658;45.630;8.886;2023-03-26T06:14:41;9.20;99.80
34406;DHT22;20658;45.630;8.886;2023-03-26T06:17:22;9.50;99.90
34406;DHT22;20658;45.630;8.886;2023-03-26T06:20:10;9.40;99.20
34406;DHT22;20658;45.630;8.886;2023-03-26T06:22:47;9.50;98.90
34406;DHT22;20658;45.630;8.886;2023-03-26T06:25:38;9.50;98.80
34406;DHT22;20658;45.630;8.886;2023-03-26T06:28:24;9.70;98.10
34406;DHT22;20658;45.630;8.886;2023-03-26T06:31:24;9.90;97.40
34406;DHT22;20658;45.630;8.886;2023-03-26T06:34:11;10.00;96.60
34406;DHT22;20658;45.630;8.886;2023-03-26T06:36:40;10.20;95.90
34406;DHT22;20658;45.630;8.886;2023-03-26T06:39:14;10.30;95.20
34406;DHT22;20658;45.630;8.886;2023-03-26T06:42:03;10.80;94.60
34406;DHT22;20658;45.630;8.886;2023-03-26T06:44:44;10.80;94.00
34406;DHT22;20658;45.630;8.886;2023-03-26T06:47:20;10.70;93.60
34406;DHT22;20658;45.630;8.886;2023-03-26T06:49:53;11.20;92.30
34406;DHT22;20658;45.630;8.886;2023-03-26T06:52:54;11.10;90.90
34406;DHT22;20658;45.630;8.886;2023-03-26T06:55:40;11.30;90.20
34406;DHT22;20658;45.630;8.886;2023-03-26T06:58:32;11.40;89.50
34406;DHT22;20658;45.630;8.886;2023-03-26T07:01:24;11.40;89.20
34406;DHT22;20658;45.630;8.886;2023-03-26T07:04:12;11.40;89.30
34406;DHT22;20658;45.630;8.886;2023-03-26T07:07:00;11.50;89.80
34406;DHT22;20658;45.630;8.886;2023-03-26T07:09:51;11.50;88.80
34406;DHT22;20658;45.630;8.886;2023-03-26T07:12:43;11.60;88.50
34406;DHT22;20658;45.630;8.886;2023-03-26T07:15:30;11.60;88.50
34406;DHT22;20658;45.630;8.886;2023-03-26T07:18:25;11.50;88.50
34406;DHT22;20658;45.630;8.886;2023-03-26T07:21:02;11.60;88.50
34406;DHT22;20658;45.630;8.886;2023-03-26T07:23:37;11.70;88.60
34406;DHT22;20658;45.630;8.886;2023-03-26T07:26:46;11.80;88.40
34406;DHT22;20658;45.630;8.886;2023-03-26T07:29:31;12.00;87.00
34406;DHT22;20658;45.630;8.886;2023-03-26T07:32:31;12.50;85.80
34406;DHT22;20658;45.630;8.886;2023-03-26T07:35:49;12.40;84.40
34406;DHT22;20658;45.630;8.886;2023-03-26T07:38:50;12.70;82.80
34406;DHT22;20658;45.630;8.886;2023-03-26T07:42:00;13.00;81.50
34406;DHT22;20658;45.630;8.886;2023-03-26T07:44:56;13.00;80.10
34406;DHT22;20658;45.630;8.886;2023-03-26T07:47:41;13.00;80.00
34406;DHT22;20658;45.630;8.886;2023-03-26T07:50:22;13.10;79.90
34406;DHT22;20658;45.630;8.886;2023-03-26T07:53:07;12.90;78.70
34406;DHT22;20658;45.630;8.886;2023-03-26T07:56:01;13.50;77.70
34406;DHT22;20658;45.630;8.886;2023-03-26T07:59:10;13.70;76.40
34406;DHT22;20658;45.630;8.886;2023-03-26T08:02:34;14.30;75.40
34406;DHT22;20658;45.630;8.886;2023-03-26T08:05:31;14.00;74.30
34406;DHT22;20658;45.630;8.886;2023-03-26T08:08:18;14.30;73.30
34406;DHT22;20658;45.630;8.886;2023-03-26T08:11:25;14.50;72.60
34406;DHT22;20658;45.630;8.886;2023-03-26T08:14:06;14.70;71.70
34406;DHT22;20658;45.630;8.886;2023-03-26T08:16:44;14.50;72.30
34406;DHT22;20658;45.630;8.886;2023-03-26T08:19:31;14.50;72.50
34406;DHT22;20658;45.630;8.886;2023-03-26T08:22:11;14.70;71.90
34406;DHT22;20658;45.630;8.886;2023-03-26T08:25:03;14.90;70.50
34406;DHT22;20658;45.630;8.886;2023-03-26T08:27:56;15.10;70.10
34406;DHT22;20658;45.630;8.886;2023-03-26T08:30:31;15.30;68.60
34406;DHT22;20658;45.630;8.886;2023-03-26T08:33:03;15.40;68.20
34406;DHT22;20658;45.630;8.886;2023-03-26T08:35:45;15.30;67.70
34406;DHT22;20658;45.630;8.886;2023-03-26T08:38:19;15.70;68.00
34406;DHT22;20658;45.630;8.886;2023-03-26T08:41:13;15.40;66.60
34406;DHT22;20658;45.630;8.886;2023-03-26T08:44:50;15.50;66.80
34406;DHT22;20658;45.630;8.886;2023-03-26T08:48:06;15.70;67.20
34406;DHT22;20658;45.630;8.886;2023-03-26T08:54:41;16.00;65.70
34406;DHT22;20658;45.630;8.886;2023-03-26T09:04:28;16.40;63.00
34406;DHT22;20658;45.630;8.886;2023-03-26T09:14:18;16.90;60.80
34406;DHT22;20658;45.630;8.886;2023-03-26T09:20:47;17.10;58.80
34406;DHT22;20658;45.630;8.886;2023-03-26T09:23:42;17.20;58.30
34406;DHT22;20658;45.630;8.886;2023-03-26T09:26:45;17.20;58.30
34406;DHT22;20658;45.630;8.886;2023-03-26T09:29:59;17.50;58.20
34406;DHT22;20658;45.630;8.886;2023-03-26T09:33:06;17.50;57.90
34406;DHT22;20658;45.630;8.886;2023-03-26T09:36:18;17.40;57.00
34406;DHT22;20658;45.630;8.886;2023-03-26T09:39:01;17.50;57.00
34406;DHT22;20658;45.630;8.886;2023-03-26T09:41:41;17.50;57.90
34406;DHT22;20658;45.630;8.886;2023-03-26T09:47:49;18.10;56.40
34406;DHT22;20658;45.630;8.886;2023-03-26T09:50:41;18.60;54.70
34406;DHT22;20658;45.630;8.886;2023-03-26T09:53:42;18.60;54.00
34406;DHT22;20658;45.630;8.886;2023-03-26T09:56:30;18.10;54.60
34406;DHT22;20658;45.630;8.886;2023-03-26T09:59:21;18.00;55.30
34406;DHT22;20658;45.630;8.886;2023-03-26T10:02:15;18.30;54.70
34406;DHT22;20658;45.630;8.886;2023-03-26T10:08:03;18.20;53.70
34406;DHT22;20658;45.630;8.886;2023-03-26T10:10:50;18.20;53.60
34406;DHT22;20658;45.630;8.886;2023-03-26T10:13:30;18.30;53.70
34406;DHT22;20658;45.630;8.886;2023-03-26T10:16:14;18.10;53.50
34406;DHT22;20658;45.630;8.886;2023-03-26T10:19:07;18.00;53.50
34406;DHT22;20658;45.630;8.886;2023-03-26T10:21:55;18.00;53.50
34406;DHT22;20658;45.630;8.886;2023-03-26T10:25:04;18.20;53.70
34406;DHT22;20658;45.630;8.886;2023-03-26T10:27:51;18.30;53.00
34406;DHT22;20658;45.630;8.886;2023-03-26T10:30:41;18.50;53.00
34406;DHT22;20658;45.630;8.886;2023-03-26T10:33:29;18.60;52.30
34406;DHT22;20658;45.630;8.886;2023-03-26T10:36:23;18.40;52.20
34406;DHT22;20658;45.630;8.886;2023-03-26T10:39:22;18.40;52.30
34406;DHT22;20658;45.630;8.886;2023-03-26T10:42:14;18.30;53.30
34406;DHT22;20658;45.630;8.886;2023-03-26T10:45:08;18.10;52.70
34406;DHT22;20658;45.630;8.886;2023-03-26T10:48:10;17.70;53.60
34406;DHT22;20658;45.630;8.886;2023-03-26T10:51:02;17.60;54.50
34406;DHT22;20658;45.630;8.886;2023-03-26T10:53:48;17.70;54.70
34406;DHT22;20658;45.630;8.886;2023-03-26T10:56:26;17.60;54.60
34406;DHT22;20658;45.630;8.886;2023-03-26T10:59:04;17.60;54.60
34406;DHT22;20658;45.630;8.886;2023-03-26T11:01:40;17.70;54.60
34406;DHT22;20658;45.630;8.886;2023-03-26T11:04:23;17.70;54.00
34406;DHT22;20658;45.630;8.886;2023-03-26T11:07:07;17.80;54.20
34406;DHT22;20658;45.630;8.886;2023-03-26T11:09:49;17.70;54.00
34406;DHT22;20658;45.630;8.886;2023-03-26T11:12:28;17.90;53.80
34406;DHT22;20658;45.630;8.886;2023-03-26T11:15:18;17.90;53.60
34406;DHT22;20658;45.630;8.886;2023-03-26T11:18:01;17.80;53.50
34406;DHT22;20658;45.630;8.886;2023-03-26T11:20:42;17.60;54.20
34406;DHT22;20658;45.630;8.886;2023-03-26T11:23:34;17.70;54.20
34406;DHT22;20658;45.630;8.886;2023-03-26T11:26:13;17.50;54.20
34406;DHT22;20658;45.630;8.886;2023-03-26T11:29:10;17.50;55.00
34406;DHT22;20658;45.630;8.886;2023-03-26T11:31:59;17.40;54.40
34406;DHT22;20658;45.630;8.886;2023-03-26T11:34:35;17.00;54.30
34406;DHT22;20658;45.630;8.886;2023-03-26T11:37:15;17.00;55.10
34406;DHT22;20658;45.630;8.886;2023-03-26T11:39:53;17.10;55.20
34406;DHT22;20658;45.630;8.886;2023-03-26T11:42:28;17.20;55.00
34406;DHT22;20658;45.630;8.886;2023-03-26T11:45:04;17.30;55.00
34406;DHT22;20658;45.630;8.886;2023-03-26T11:47:45;17.40;55.60
34406;DHT22;20658;45.630;8.886;2023-03-26T11:50:23;17.40;55.20
34406;DHT22;20658;45.630;8.886;2023-03-26T11:53:05;17.50;54.70
34406;DHT22;20658;45.630;8.886;2023-03-26T11:55:47;17.50;54.20
34406;DHT22;20658;45.630;8.886;2023-03-26T11:58:28;17.50;54.00
34406;DHT22;20658;45.630;8.886;2023-03-26T12:01:12;17.20;54.20
34406;DHT22;20658;45.630;8.886;2023-03-26T12:03:57;17.10;54.10
34406;DHT22;20658;45.630;8.886;2023-03-26T12:06:35;17.00;54.40
34406;DHT22;20658;45.630;8.886;2023-03-26T12:09:15;16.80;54.00
34406;DHT22;20658;45.630;8.886;2023-03-26T12:11:52;16.20;54.80
34406;DHT22;20658;45.630;8.886;2023-03-26T12:14:31;16.10;55.30
34406;DHT22;20658;45.630;8.886;2023-03-26T12:17:03;16.10;55.50
34406;DHT22;20658;45.630;8.886;2023-03-26T12:19:41;16.10;55.30
34406;DHT22;20658;45.630;8.886;2023-03-26T12:22:30;16.20;55.40
34406;DHT22;20658;45.630;8.886;2023-03-26T12:25:15;16.10;55.80
34406;DHT22;20658;45.630;8.886;2023-03-26T12:27:51;16.10;56.50
34406;DHT22;20658;45.630;8.886;2023-03-26T12:30:34;15.70;60.60
34406;DHT22;20658;45.630;8.886;2023-03-26T12:33:15;15.50;64.50
34406;DHT22;20658;45.630;8.886;2023-03-26T12:35:55;15.30;67.60
34406;DHT22;20658;45.630;8.886;2023-03-26T12:38:32;15.20;69.20
34406;DHT22;20658;45.630;8.886;2023-03-26T12:41:08;15.10;70.10
34406;DHT22;20658;45.630;8.886;2023-03-26T12:43:43;15.20;70.80
34406;DHT22;20658;45.630;8.886;2023-03-26T12:46:25;15.10;72.20
34406;DHT22;20658;45.630;8.886;2023-03-26T12:49:04;15.00;74.20
34406;DHT22;20658;45.630;8.886;2023-03-26T12:51:46;15.20;76.80
34406;DHT22;20658;45.630;8.886;2023-03-26T12:54:36;14.70;78.50
34406;DHT22;20658;45.630;8.886;2023-03-26T12:57:19;14.40;79.60
34406;DHT22;20658;45.630;8.886;2023-03-26T13:00:07;14.30;81.20
34406;DHT22;20658;45.630;8.886;2023-03-26T13:03:05;14.30;84.10
34406;DHT22;20658;45.630;8.886;2023-03-26T13:05:56;13.50;86.80
34406;DHT22;20658;45.630;8.886;2023-03-26T13:12:02;12.70;88.70
34406;DHT22;20658;45.630;8.886;2023-03-26T13:14:57;12.60;90.60
34406;DHT22;20658;45.630;8.886;2023-03-26T13:17:42;12.50;91.30
34406;DHT22;20658;45.630;8.886;2023-03-26T13:20:54;12.50;91.80
34406;DHT22;20658;45.630;8.886;2023-03-26T13:23:46;12.20;91.80
34406;DHT22;20658;45.630;8.886;2023-03-26T13:26:37;12.40;92.00
34406;DHT22;20658;45.630;8.886;2023-03-26T13:29:27;12.90;90.90
34406;DHT22;20658;45.630;8.886;2023-03-26T13:32:09;12.50;90.00
34406;DHT22;20658;45.630;8.886;2023-03-26T13:35:02;12.50;89.70
34406;DHT22;20658;45.630;8.886;2023-03-26T13:37:45;12.90;89.30
34406;DHT22;20658;45.630;8.886;2023-03-26T13:40:28;12.50;88.70
34406;DHT22;20658;45.630;8.886;2023-03-26T13:43:18;12.50;89.40
34406;DHT22;20658;45.630;8.886;2023-03-26T13:46:04;12.40;89.70
34406;DHT22;20658;45.630;8.886;2023-03-26T13:48:39;12.50;89.90
34406;DHT22;20658;45.630;8.886;2023-03-26T13:51:17;12.50;89.90
34406;DHT22;20658;45.630;8.886;2023-03-26T13:53:57;12.60;89.90
34406;DHT22;20658;45.630;8.886;2023-03-26T13:56:43;12.50;90.50
34406;DHT22;20658;45.630;8.886;2023-03-26T13:59:21;12.50;91.40
34406;DHT22;20658;45.630;8.886;2023-03-26T14:02:02;12.40;90.40
34406;DHT22;20658;45.630;8.886;2023-03-26T14:04:44;12.30;91.30
34406;DHT22;20658;45.630;8.886;2023-03-26T14:07:22;12.40;91.20
34406;DHT22;20658;45.630;8.886;2023-03-26T14:10:02;12.90;90.80
34406;DHT22;20658;45.630;8.886;2023-03-26T14:12:41;12.70;90.00
34406;DHT22;20658;45.630;8.886;2023-03-26T14:15:22;12.80;90.70
34406;DHT22;20658;45.630;8.886;2023-03-26T14:18:05;12.90;88.80
34406;DHT22;20658;45.630;8.886;2023-03-26T14:21:19;12.80;89.80
34406;DHT22;20658;45.630;8.886;2023-03-26T14:27:39;12.60;89.00
34406;DHT22;20658;45.630;8.886;2023-03-26T14:30:58;12.80;89.50
34406;DHT22;20658;45.630;8.886;2023-03-26T14:37:19;12.50;89.50
34406;DHT22;20658;45.630;8.886;2023-03-26T14:40:02;12.50;90.10
34406;DHT22;20658;45.630;8.886;2023-03-26T14:42:46;12.50;90.00
34406;DHT22;20658;45.630;8.886;2023-03-26T14:45:54;12.60;90.10
34406;DHT22;20658;45.630;8.886;2023-03-26T14:48:48;12.70;90.20
34406;DHT22;20658;45.630;8.886;2023-03-26T14:51:40;12.60;88.50
34406;DHT22;20658;45.630;8.886;2023-03-26T14:54:23;12.40;87.50
34406;DHT22;20658;45.630;8.886;2023-03-26T14:57:20;12.70;88.20
34406;DHT22;20658;45.630;8.886;2023-03-26T15:00:30;12.30;88.60
34406;DHT22;20658;45.630;8.886;2023-03-26T15:10:43;12.40;91.40
34406;DHT22;20658;45.630;8.886;2023-03-26T15:13:44;12.40;92.40
34406;DHT22;20658;45.630;8.886;2023-03-26T15:17:08;12.30;93.40
34406;DHT22;20658;45.630;8.886;2023-03-26T15:20:43;12.30;92.10
34406;DHT22;20658;45.630;8.886;2023-03-26T15:23:53;12.30;91.70
34406;DHT22;20658;45.630;8.886;2023-03-26T15:27:01;12.30;91.70
34406;DHT22;20658;45.630;8.886;2023-03-26T15:37:45;12.50;90.00
34406;DHT22;20658;45.630;8.886;2023-03-26T15:40:54;12.70;88.10
34406;DHT22;20658;45.630;8.886;2023-03-26T15:47:00;12.70;86.20
34406;DHT22;20658;45.630;8.886;2023-03-26T15:49:59;12.70;85.00
34406;DHT22;20658;45.630;8.886;2023-03-26T15:52:46;12.80;85.20
34406;DHT22;20658;45.630;8.886;2023-03-26T15:55:29;13.30;85.00
34406;DHT22;20658;45.630;8.886;2023-03-26T15:58:12;13.10;84.50
34406;DHT22;20658;45.630;8.886;2023-03-26T16:00:53;13.30;85.70
34406;DHT22;20658;45.630;8.886;2023-03-26T16:03:39;13.70;85.90
34406;DHT22;20658;45.630;8.886;2023-03-26T16:06:26;14.10;84.10
34406;DHT22;20658;45.630;8.886;2023-03-26T16:09:12;14.10;81.70
34406;DHT22;20658;45.630;8.886;2023-03-26T16:11:53;13.90;82.00
34406;DHT22;20658;45.630;8.886;2023-03-26T16:14:41;13.90;80.00
34406;DHT22;20658;45.630;8.886;2023-03-26T16:17:11;13.70;80.20
34406;DHT22;20658;45.630;8.886;2023-03-26T16:19:54;13.70;79.30
34406;DHT22;20658;45.630;8.886;2023-03-26T16:22:40;13.80;80.00
34406;DHT22;20658;45.630;8.886;2023-03-26T16:25:30;14.00;76.90
34406;DHT22;20658;45.630;8.886;2023-03-26T16:28:24;14.10;76.20
34406;DHT22;20658;45.630;8.886;2023-03-26T16:34:24;14.40;74.00
34406;DHT22;20658;45.630;8.886;2023-03-26T16:36:59;14.60;74.30
34406;DHT22;20658;45.630;8.886;2023-03-26T16:39:41;14.80;72.80
34406;DHT22;20658;45.630;8.886;2023-03-26T16:42:35;14.90;70.90
34406;DHT22;20658;45.630;8.886;2023-03-26T16:45:17;15.20;70.70
34406;DHT22;20658;45.630;8.886;2023-03-26T16:47:59;14.70;70.80
34406;DHT22;20658;45.630;8.886;2023-03-26T16:50:44;14.50;70.70
34406;DHT22;20658;45.630;8.886;2023-03-26T16:53:25;14.40;72.10
34406;DHT22;20658;45.630;8.886;2023-03-26T16:56:13;14.20;72.90
34406;DHT22;20658;45.630;8.886;2023-03-26T16:58:53;14.20;73.30
34406;DHT22;20658;45.630;8.886;2023-03-26T17:01:39;14.10;74.00
34406;DHT22;20658;45.630;8.886;2023-03-26T17:04:15;13.90;73.50
34406;DHT22;20658;45.630;8.886;2023-03-26T17:07:06;13.90;74.50
34406;DHT22;20658;45.630;8.886;2023-03-26T17:09:53;14.00;75.10
34406;DHT22;20658;45.630;8.886;2023-03-26T17:12:34;14.10;74.30
34406;DHT22;20658;45.630;8.886;2023-03-26T17:15:20;14.30;73.80
34406;DHT22;20658;45.630;8.886;2023-03-26T17:18:16;14.50;73.80
34406;DHT22;20658;45.630;8.886;2023-03-26T17:21:03;14.30;73.00
34406;DHT22;20658;45.630;8.886;2023-03-26T17:23:54;14.30;73.40
34406;DHT22;20658;45.630;8.886;2023-03-26T17:26:44;14.20;73.00
34406;DHT22;20658;45.630;8.886;2023-03-26T17:29:30;13.90;73.40
34406;DHT22;20658;45.630;8.886;2023-03-26T17:32:12;13.80;74.10
34406;DHT22;20658;45.630;8.886;2023-03-26T17:34:53;13.70;74.70
34406;DHT22;20658;45.630;8.886;2023-03-26T17:37:50;13.50;75.10
34406;DHT22;20658;45.630;8.886;2023-03-26T17:40:41;13.10;77.50
34406;DHT22;20658;45.630;8.886;2023-03-26T17:43:41;12.90;79.00
34406;DHT22;20658;45.630;8.886;2023-03-26T17:46:30;12.70;80.50
34406;DHT22;20658;45.630;8.886;2023-03-26T17:49:12;12.50;81.60
34406;DHT22;20658;45.630;8.886;2023-03-26T17:51:48;12.40;82.00
34406;DHT22;20658;45.630;8.886;2023-03-26T17:54:21;12.30;82.50
34406;DHT22;20658;45.630;8.886;2023-03-26T17:57:01;12.40;82.80
34406;DHT22;20658;45.630;8.886;2023-03-26T17:59:31;12.20;83.10
34406;DHT22;20658;45.630;8.886;2023-03-26T18:02:12;12.10;83.70
34406;DHT22;20658;45.630;8.886;2023-03-26T18:04:50;12.00;84.90
34406;DHT22;20658;45.630;8.886;2023-03-26T18:07:43;11.90;86.00
34406;DHT22;20658;45.630;8.886;2023-03-26T18:14:41;11.60;88.00
34406;DHT22;20658;45.630;8.886;2023-03-26T18:17:38;11.70;89.60
34406;DHT22;20658;45.630;8.886;2023-03-26T18:20:21;11.50;90.00
34406;DHT22;20658;45.630;8.886;2023-03-26T18:22:55;11.50;90.10
34406;DHT22;20658;45.630;8.886;2023-03-26T18:25:30;11.40;90.70
34406;DHT22;20658;45.630;8.886;2023-03-26T18:28:04;11.40;91.20
34406;DHT22;20658;45.630;8.886;2023-03-26T18:30:44;11.30;92.00